Time;durP1;ratioP1;P1;durP2;ratioP2;P2;SDS_P1;SDS_P2;PMS_P1;PMS_P2;Temp;Humidity;BMP_temperature;BMP_pressure;BME280_temperature;BME280_humidity;BME280_pressure;Samples;Min_cycle;Max_cycle;Signal;HPM_P1;HPM_P2
2023/01/12 00:02:13;;;;;;;2.25;1.50;;;;;;;-6.26;46.98;101436.69;4798888;29;20039;-78
2023/01/12 00:04:39;;;;;;;2.85;1.40;;;;;;;-6.28;46.55;101435.66;4809805;30;20056;-78
2023/01/12 00:07:07;;;;;;;1.92;1.38;;;;;;;-6.17;46.75;101449.25;4810764;29;20099;-76
2023/01/12 00:09:33;;;;;;;3.92;1.40;;;;;;;-6.49;46.82;101409.34;4810672;29;20065;-77
2023/01/12 00:11:59;;;;;;;4.85;1.70;;;;;;;-6.42;46.63;101429.41;4795461;30;20031;-77
2023/01/12 00:14:25;;;;;;;3.85;1.73;;;;;;;-6.33;46.53;101434.38;4816584;29;20054;-78
2023/01/12 00:16:51;;;;;;;4.10;1.58;;;;;;;-6.45;46.87;101434.19;4828191;29;20051;-79
2023/01/12 00:19:19;;;;;;;4.05;2.03;;;;;;;-6.42;47.61;101423.47;4826483;29;20106;-78
2023/01/12 00:24:17;;;;;;;;;;;;;;;-6.42;47.17;101418.41;4828121;29;20050;-78
2023/01/12 00:26:44;;;;;;;2.30;1.35;;;;;;;-6.67;46.90;101380.84;4826080;29;19964;-78
2023/01/12 00:29:10;;;;;;;3.17;1.83;;;;;;;-6.89;47.19;101350.22;4777774;29;20085;-79
2023/01/12 00:31:36;;;;;;;4.43;1.67;;;;;;;-6.47;47.15;101417.97;4807978;29;20042;-78
2023/01/12 00:34:02;;;;;;;1.95;1.40;;;;;;;-6.58;47.00;101421.25;4807740;29;20528;-79
2023/01/12 00:36:28;;;;;;;4.55;1.30;;;;;;;-6.54;47.13;101424.19;4808315;29;20046;-80
2023/01/12 00:38:54;;;;;;;2.78;1.40;;;;;;;-6.76;47.34;101398.66;4808209;29;20074;-78
2023/01/12 00:46:49;;;;;;;2.15;1.50;;;;;;;-6.52;47.34;101422.66;4807801;29;20505;-78
2023/01/12 00:49:16;;;;;;;3.80;1.50;;;;;;;-6.58;47.05;101424.66;4813613;29;20107;-80
2023/01/12 00:51:42;;;;;;;8.43;1.73;;;;;;;-6.62;47.65;101404.91;4791533;29;20072;-78
2023/01/12 00:54:08;;;;;;;6.45;1.67;;;;;;;-6.55;47.59;101417.34;4777103;29;20137;-78
2023/01/12 00:56:35;;;;;;;3.03;1.45;;;;;;;-6.47;47.15;101417.09;4807818;29;20070;-78
2023/01/12 00:59:02;;;;;;;3.60;1.70;;;;;;;-6.53;47.15;101425.94;4806400;29;20459;-79
2023/01/12 01:01:28;;;;;;;4.32;1.45;;;;;;;-6.78;47.50;101382.44;4807731;29;20047;-81
2023/01/12 01:03:54;;;;;;;2.60;1.45;;;;;;;-6.59;47.37;101400.09;4807578;29;20134;-81
2023/01/12 01:06:21;;;;;;;2.83;1.30;;;;;;;-6.58;47.38;101408.59;4790791;29;20137;-79
2023/01/12 01:08:47;;;;;;;6.03;1.70;;;;;;;-6.57;47.71;101406.19;4790369;29;20081;-79
2023/01/12 01:11:13;;;;;;;4.25;1.52;;;;;;;-6.95;47.17;101363.25;4807842;29;20053;-78
2023/01/12 01:13:42;;;;;;;3.97;1.50;;;;;;;-6.61;47.90;101406.66;4807954;29;20050;-78
2023/01/12 01:16:14;;;;;;;2.25;1.23;;;;;;;-6.70;47.68;101398.28;4740883;30;20576;-79
2023/01/12 01:18:42;;;;;;;3.25;1.40;;;;;;;-6.75;47.37;101402.97;4770203;30;20051;-79
2023/01/12 01:21:13;;;;;;;4.00;1.63;;;;;;;-6.72;48.04;101409.94;4769153;30;20425;-79
2023/01/12 01:23:40;;;;;;;2.95;1.40;;;;;;;-6.68;48.37;101391.72;4770786;29;20122;-78
2023/01/12 01:26:09;;;;;;;3.78;1.70;;;;;;;-6.47;48.03;101417.97;4769167;30;20177;-79
2023/01/12 01:28:38;;;;;;;2.05;1.23;;;;;;;-6.53;48.11;101403.16;4769170;30;20148;-79
2023/01/12 01:31:08;;;;;;;3.05;1.77;;;;;;;-6.46;47.98;101409.63;4768910;30;20052;-79
2023/01/12 01:33:34;;;;;;;2.28;1.30;;;;;;;-6.57;47.83;101379.97;4783818;29;20051;-77
2023/01/12 01:36:00;;;;;;;7.00;1.70;;;;;;;-6.49;48.03;101408.50;4769759;30;20073;-79
2023/01/12 01:38:27;;;;;;;4.60;1.67;;;;;;;-6.62;47.88;101378.69;4783866;30;20574;-79
2023/01/12 01:40:53;;;;;;;4.03;1.58;;;;;;;-6.57;47.98;101395.16;4768872;30;20071;-78
2023/01/12 01:43:22;;;;;;;2.92;1.70;;;;;;;-6.65;47.99;101376.78;4783918;30;20051;-79
2023/01/12 01:45:57;;;;;;;1.80;1.30;;;;;;;-6.55;47.83;101399.59;4768265;30;20051;-80
2023/01/12 01:48:23;;;;;;;3.63;1.60;;;;;;;-6.56;48.18;101391.88;4783240;30;20092;-79
2023/01/12 01:51:06;;;;;;;3.35;1.52;;;;;;;-6.50;48.35;101392.38;4768346;30;20139;-79
2023/01/12 01:53:35;;;;;;;2.83;1.58;;;;;;;-6.54;48.07;101396.31;4769727;30;20081;-79
2023/01/12 01:56:10;;;;;;;2.60;1.20;;;;;;;-6.52;48.29;101383.78;4773698;29;20047;-79
2023/01/12 01:58:45;;;;;;;3.83;1.60;;;;;;;-6.60;47.97;101377.19;4788119;30;20079;-78
2023/01/12 02:01:11;;;;;;;2.70;1.48;;;;;;;-6.87;48.50;101316.72;4784125;30;20528;-78
2023/01/12 02:03:40;;;;;;;3.92;1.75;;;;;;;-6.50;48.35;101377.19;4773719;30;20079;-79
2023/01/12 02:06:07;;;;;;;2.10;1.42;;;;;;;-6.46;47.82;101376.69;4784269;30;20531;-79
2023/01/12 02:08:42;;;;;;;3.97;1.42;;;;;;;-6.42;48.27;101368.59;4785665;30;20134;-79
2023/01/12 02:16:19;;;;;;;1.92;1.10;;;;;;;-6.50;47.90;101399.97;4769389;29;20515;-79
2023/01/12 02:16:49;;;;;;;5.07;1.60;;;;;;;-6.68;48.37;101356.25;4805209;29;20115;-79
2023/01/12 02:19:33;;;;;;;4.25;1.75;;;;;;;-6.56;48.70;101356.41;4807305;29;20061;-80
2023/01/12 02:22:14;;;;;;;4.63;1.65;;;;;;;-6.57;48.33;101364.78;4811540;29;20053;-78
2023/01/12 02:24:49;;;;;;;3.40;1.52;;;;;;;-6.58;48.19;101351.22;4813880;29;20149;-79
2023/01/12 02:27:41;;;;;;;2.25;1.40;;;;;;;-6.61;48.35;101348.41;4802444;29;20069;-78
2023/01/12 02:30:37;;;;;;;4.68;1.50;;;;;;;-6.59;48.35;101368.81;4819646;29;20050;-79
2023/01/12 02:33:28;;;;;;;3.22;1.40;;;;;;;-6.70;48.73;101385.63;4809050;29;20047;-78
2023/01/12 02:36:05;;;;;;;3.85;1.20;;;;;;;-6.94;48.31;101344.78;4809241;29;20582;-79
2023/01/12 02:38:44;;;;;;;3.70;1.60;;;;;;;-6.88;48.92;101350.38;4811186;29;20043;-78
2023/01/12 02:41:13;;;;;;;2.85;1.67;;;;;;;-6.81;48.80;101364.44;4821907;29;20072;-78
2023/01/12 02:43:41;;;;;;;3.72;1.73;;;;;;;-6.87;48.77;101347.09;4827475;29;20050;-82
2023/01/12 02:46:27;;;;;;;3.78;1.50;;;;;;;-6.79;48.82;101357.88;4831218;29;20052;-80
2023/01/12 02:49:00;;;;;;;2.58;1.65;;;;;;;-6.79;48.69;101360.41;4818240;29;20062;-80
2023/01/12 02:51:42;;;;;;;6.07;1.73;;;;;;;-6.93;48.72;101321.25;4818173;29;20082;-78
2023/01/12 02:54:11;;;;;;;4.25;2.05;;;;;;;-6.75;48.74;101349.78;4817812;29;20023;-79
2023/01/12 02:56:43;;;;;;;2.15;1.30;;;;;;;-6.85;48.66;101360.78;4813186;29;20051;-78
2023/01/12 02:59:17;;;;;;;3.50;1.33;;;;;;;-6.93;48.90;101348.19;4811625;29;20057;-80
2023/01/12 03:01:47;;;;;;;5.28;1.80;;;;;;;-6.95;49.41;101350.59;4780853;29;20580;-80
2023/01/12 03:04:15;;;;;;;2.20;1.40;;;;;;;-7.11;48.85;101323.06;4811206;29;20053;-80
2023/01/12 03:07:06;;;;;;;4.40;1.50;;;;;;;-6.90;49.07;101335.78;4809784;29;20130;-78
2023/01/12 03:09:41;;;;;;;3.28;1.50;;;;;;;-6.70;49.38;101348.53;4810024;29;20505;-79
2023/01/12 03:12:37;;;;;;;3.50;1.50;;;;;;;-6.81;49.01;101327.34;4809597;29;20108;-79
2023/01/12 03:15:07;;;;;;;2.47;1.50;;;;;;;-6.61;49.10;101343.34;4799788;29;20062;-79
2023/01/12 03:17:43;;;;;;;2.53;1.50;;;;;;;-6.52;48.63;101343.25;4801837;29;20055;-80
2023/01/12 03:20:19;;;;;;;4.32;1.60;;;;;;;-6.60;49.19;101332.47;4791675;30;20059;-79
2023/01/12 03:22:48;;;;;;;2.65;1.30;;;;;;;-6.89;48.82;101280.25;4776372;29;20506;-79
2023/01/12 03:25:16;;;;;;;4.28;1.25;;;;;;;-6.67;48.62;101341.19;4792923;29;20039;-79
2023/01/12 03:27:47;;;;;;;2.92;1.75;;;;;;;-6.69;49.11;101319.03;4791060;30;20072;-78
2023/01/12 03:30:25;;;;;;;4.63;2.07;;;;;;;-6.63;49.24;101333.84;4791305;29;20043;-79
2023/01/12 03:32:51;;;;;;;5.07;1.60;;;;;;;-6.58;49.24;101351.22;4776280;29;20384;-80
2023/01/12 03:35:23;;;;;;;3.15;1.50;;;;;;;-6.65;49.45;101341.34;4761306;30;20077;-78
2023/01/12 03:37:57;;;;;;;4.35;1.88;;;;;;;-6.85;48.95;101321.91;4791296;30;20047;-79
2023/01/12 03:40:44;;;;;;;3.80;1.73;;;;;;;-6.89;48.89;101337.56;4791260;29;20047;-78
2023/01/12 03:43:22;;;;;;;4.85;1.98;;;;;;;-7.14;49.08;101300.94;4776585;29;20055;-78
2023/01/12 03:45:57;;;;;;;3.13;1.60;;;;;;;-6.85;49.22;101352.28;4791136;29;20051;-81
2023/01/12 03:48:34;;;;;;;2.47;1.23;;;;;;;-6.86;49.41;101365.69;4791908;29;20047;-79
2023/01/12 03:51:09;;;;;;;2.95;1.50;;;;;;;-6.94;49.09;101361.59;4792067;29;20055;-80
2023/01/12 03:53:37;;;;;;;4.45;1.63;;;;;;;-7.02;49.53;101344.13;4791022;30;20101;-80
2023/01/12 03:56:07;;;;;;;4.65;2.15;;;;;;;-6.92;49.46;101357.56;4790706;30;20433;-80
2023/01/12 03:58:35;;;;;;;3.40;1.70;;;;;;;-6.93;49.60;101356.69;4787136;29;20051;-80
2023/01/12 04:01:02;;;;;;;2.85;1.35;;;;;;;-7.08;49.14;101330.06;4773225;30;20081;-80
2023/01/12 04:03:29;;;;;;;3.65;1.85;;;;;;;-7.08;49.45;101317.41;4789304;29;20468;-80
2023/01/12 04:05:55;;;;;;;3.95;2.00;;;;;;;-7.05;49.59;101331.19;4773258;29;20047;-80
2023/01/12 04:08:24;;;;;;;8.57;2.03;;;;;;;-7.14;49.37;101312.69;4788168;29;20047;-79
2023/01/12 04:10:53;;;;;;;4.72;1.80;;;;;;;-6.94;49.86;101332.13;4788659;29;20062;-80
2023/01/12 04:13:19;;;;;;;7.50;2.15;;;;;;;-7.00;49.67;101317.31;4760989;30;20081;-79
2023/01/12 04:15:46;;;;;;;3.95;1.88;;;;;;;-6.93;49.70;101316.19;4807555;29;20058;-79
2023/01/12 04:18:12;;;;;;;3.17;1.60;;;;;;;-6.97;49.52;101297.31;4806262;29;20062;-80
2023/01/12 04:20:39;;;;;;;4.43;1.83;;;;;;;-7.06;49.70;101272.88;4806278;29;20069;-80
2023/01/12 04:23:06;;;;;;;5.78;1.75;;;;;;;-6.76;49.58;101331.91;4806820;29;20054;-79
2023/01/12 04:25:33;;;;;;;5.47;1.92;;;;;;;-6.84;49.67;101329.59;4806949;29;20050;-80
2023/01/12 04:28:03;;;;;;;6.63;1.80;;;;;;;-6.98;49.46;101292.13;4805446;29;20456;-80
2023/01/12 04:30:33;;;;;;;3.85;1.70;;;;;;;-6.93;49.52;101313.66;4808477;29;20111;-81
2023/01/12 04:33:06;;;;;;;5.70;2.25;;;;;;;-7.02;49.60;101283.38;4808619;29;20058;-80
2023/01/12 04:35:32;;;;;;;5.20;2.00;;;;;;;-6.83;49.54;101316.19;4805707;29;20051;-79
2023/01/12 04:38:04;;;;;;;4.05;2.00;;;;;;;-6.92;49.80;101289.22;4805280;29;20295;-80
2023/01/12 04:40:31;;;;;;;4.68;2.30;;;;;;;-6.87;49.63;101287.97;4805238;29;20613;-80
2023/01/12 04:42:59;;;;;;;6.45;2.28;;;;;;;-6.82;49.46;101305.31;4775753;29;20065;-79
2023/01/12 04:45:29;;;;;;;5.45;2.13;;;;;;;-6.89;49.60;101282.78;4806110;29;20084;-78
2023/01/12 04:48:07;;;;;;;5.55;2.42;;;;;;;-6.90;49.65;101292.75;4805745;29;20058;-79
2023/01/12 04:50:33;;;;;;;4.45;2.22;;;;;;;-6.73;49.52;101343.19;4806244;29;20477;-79
2023/01/12 04:53:03;;;;;;;4.40;2.30;;;;;;;-6.89;49.62;101295.44;4807072;29;20531;-80
2023/01/12 04:55:30;;;;;;;7.22;1.92;;;;;;;-6.74;49.85;101305.09;4805257;29;20051;-80
2023/01/12 04:57:56;;;;;;;3.25;2.08;;;;;;;-6.90;49.22;101298.72;4790667;29;20058;-80
2023/01/12 05:00:23;;;;;;;4.30;2.15;;;;;;;-6.89;49.66;101327.44;4806532;29;20046;-80
2023/01/12 05:02:49;;;;;;;5.07;2.00;;;;;;;-6.88;49.69;101320.00;4805156;29;20054;-79
2023/01/12 05:05:15;;;;;;;4.13;1.83;;;;;;;-7.11;49.57;101293.59;4806772;29;20049;-79
2023/01/12 05:10:21;;;;;;;4.30;2.38;;;;;;;-7.15;49.48;101286.50;4810292;29;20046;-80
2023/01/12 05:10:28;;;;;;;3.60;1.95;;;;;;;-7.00;50.21;101302.13;4814787;29;20058;-79
2023/01/12 05:12:55;;;;;;;3.60;2.00;;;;;;;-7.15;50.07;101281.44;4813524;29;20406;-79
2023/01/12 05:15:22;;;;;;;3.22;1.77;;;;;;;-7.21;49.83;101285.97;4784444;29;20066;-80
2023/01/12 05:17:49;;;;;;;3.95;1.92;;;;;;;-7.11;49.84;101315.47;4772451;29;20059;-80
2023/01/12 05:20:15;;;;;;;8.05;2.47;;;;;;;-7.32;50.29;101261.41;4787040;30;20047;-79
2023/01/12 05:22:41;;;;;;;3.58;2.25;;;;;;;-7.14;49.96;101292.44;4772031;30;20524;-78
2023/01/12 05:25:07;;;;;;;4.53;2.03;;;;;;;-6.89;50.05;101330.88;4787117;30;20119;-78
2023/01/12 05:27:34;;;;;;;4.20;2.30;;;;;;;-7.18;50.24;101271.06;4788104;29;20051;-79
2023/01/12 05:30:00;;;;;;;5.43;2.70;;;;;;;-7.76;50.41;101175.84;4788618;29;20039;-81
2023/01/12 05:32:26;;;;;;;4.82;2.17;;;;;;;-7.00;50.04;101322.38;4787092;30;20055;-80
2023/01/12 05:34:51;;;;;;;3.13;1.45;;;;;;;-6.93;49.64;101323.78;4786881;30;20533;-79
2023/01/12 05:37:17;;;;;;;3.90;2.30;;;;;;;-6.96;50.03;101334.53;4788401;29;20401;-79
2023/01/12 05:39:43;;;;;;;3.65;1.98;;;;;;;-7.36;49.81;101280.47;4772246;30;20050;-80
2023/01/12 05:44:54;;;;;;;5.63;2.13;;;;;;;-7.06;50.07;101311.72;4793119;30;20043;-78
2023/01/12 05:47:20;;;;;;;6.88;2.42;;;;;;;-6.94;50.34;101331.22;4798023;29;20051;-80
2023/01/12 05:49:46;;;;;;;6.30;1.98;;;;;;;-7.21;50.10;101291.03;4796326;29;20076;-79
2023/01/12 05:52:12;;;;;;;5.40;2.38;;;;;;;-7.33;50.08;101283.25;4801616;29;20141;-79
2023/01/12 05:54:38;;;;;;;4.45;1.95;;;;;;;-7.39;50.27;101267.53;4799998;29;20047;-80
2023/01/12 05:57:04;;;;;;;4.68;2.55;;;;;;;-7.16;50.36;101302.44;4798223;30;20054;-79
2023/01/12 05:59:30;;;;;;;3.53;1.90;;;;;;;-7.22;50.16;101314.56;4797186;30;20482;-80
2023/01/12 06:01:56;;;;;;;4.88;2.65;;;;;;;-7.32;50.24;101317.91;4796537;30;20187;-79
2023/01/12 06:04:24;;;;;;;3.70;1.85;;;;;;;-7.56;50.41;101289.72;4796344;30;20100;-80
2023/01/12 06:06:50;;;;;;;4.80;2.40;;;;;;;-7.37;50.39;101315.75;4794041;29;20045;-79
2023/01/12 06:09:16;;;;;;;7.00;2.20;;;;;;;-7.36;50.47;101322.59;4791807;29;20428;-80
2023/01/12 06:14:37;;;;;;;4.38;1.83;;;;;;;-6.38;50.61;101314.91;4810157;29;20054;-79
2023/01/12 06:17:03;;;;;;;3.67;2.00;;;;;;;-6.02;50.56;101269.66;4804982;29;20414;-79
2023/01/12 06:19:29;;;;;;;4.80;2.08;;;;;;;-5.97;49.63;101270.88;4805803;29;20089;-80
2023/01/12 06:21:58;;;;;;;7.63;2.42;;;;;;;-6.01;49.33;101323.75;4805985;29;20528;-79
2023/01/12 06:24:26;;;;;;;5.53;1.75;;;;;;;-6.08;48.59;101319.84;4808199;29;20047;-80
2023/01/12 06:26:53;;;;;;;5.35;2.22;;;;;;;-5.40;49.56;101312.59;4806233;29;20146;-80
2023/01/12 06:29:20;;;;;;;5.07;2.22;;;;;;;-4.58;49.19;101312.97;4806363;29;20053;-79
2023/01/12 06:31:46;;;;;;;7.80;2.42;;;;;;;-4.33;48.15;101290.31;4795556;29;20138;-79
2023/01/12 06:34:12;;;;;;;4.28;2.13;;;;;;;-4.33;47.87;101300.47;4787054;29;20455;-79
2023/01/12 06:36:44;;;;;;;5.57;2.10;;;;;;;-4.16;47.46;101252.53;4788800;29;20099;-81
2023/01/12 06:39:11;;;;;;;3.35;2.13;;;;;;;-3.43;47.22;101288.28;4785446;29;20134;-80
2023/01/12 06:44:22;;;;;;;5.45;3.00;;;;;;;-2.62;47.16;101294.75;4790030;29;20054;-80
2023/01/12 06:46:48;;;;;;;5.95;2.80;;;;;;;-2.99;45.75;101259.13;4798856;29;20366;-80
2023/01/12 06:49:17;;;;;;;4.47;2.20;;;;;;;-3.15;45.40;101255.47;4774014;29;20047;-80
2023/01/12 06:51:45;;;;;;;4.03;2.63;;;;;;;-3.04;45.27;101263.88;4804392;29;20046;-79
2023/01/12 06:54:11;;;;;;;5.43;2.10;;;;;;;-2.27;45.24;101303.91;4789282;29;20425;-79
2023/01/12 06:56:37;;;;;;;3.97;2.35;;;;;;;-1.51;44.85;101283.28;4806751;29;20096;-80
2023/01/12 06:59:03;;;;;;;4.53;2.53;;;;;;;-1.31;43.36;101253.91;4794146;29;20051;-79
2023/01/12 07:01:29;;;;;;;7.95;2.33;;;;;;;-0.80;42.94;101284.28;4797750;29;20133;-79
2023/01/12 07:03:55;;;;;;;4.07;2.63;;;;;;;-0.72;43.04;101270.25;4804682;29;20070;-81
2023/01/12 07:06:22;;;;;;;5.32;2.42;;;;;;;-0.74;42.06;101294.84;4803368;29;20055;-80
2023/01/12 07:08:47;;;;;;;4.78;2.80;;;;;;;-0.91;41.86;101299.81;4788656;29;20167;-80
2023/01/12 07:11:15;;;;;;;4.80;2.70;;;;;;;-0.90;42.27;101303.28;4803132;29;20161;-79
2023/01/12 07:13:41;;;;;;;4.47;2.33;;;;;;;-0.93;41.58;101298.84;4804463;29;20058;-79
2023/01/12 07:16:08;;;;;;;3.70;2.53;;;;;;;-1.61;40.54;101294.59;4772562;30;20055;-79
2023/01/12 07:18:36;;;;;;;5.65;2.72;;;;;;;-1.74;41.96;101272.50;4787818;30;20078;-80
2023/01/12 07:21:07;;;;;;;6.78;3.00;;;;;;;-1.23;42.45;101287.59;4788505;29;20051;-79
2023/01/12 07:23:36;;;;;;;5.82;2.70;;;;;;;-1.24;41.75;101276.53;4772009;30;20051;-77
2023/01/12 07:26:03;;;;;;;6.50;2.90;;;;;;;-1.64;41.60;101316.50;4787277;29;20078;-78
2023/01/12 07:28:31;;;;;;;7.72;3.50;;;;;;;-3.08;41.43;101195.66;4771910;30;20079;-79
2023/01/12 07:31:02;;;;;;;4.50;2.65;;;;;;;-2.83;41.66;101286.50;4786692;29;20369;-81
2023/01/12 07:33:29;;;;;;;8.85;3.25;;;;;;;-2.31;42.92;101256.00;4790895;29;20055;-80
2023/01/12 07:36:00;;;;;;;7.05;3.47;;;;;;;-1.04;41.60;101250.41;4759635;30;20039;-80
2023/01/12 07:38:30;;;;;;;5.35;2.90;;;;;;;0.01;41.18;101268.53;4791257;29;20043;-82
2023/01/12 07:42:21;;;;;;;9.00;4.10;;;;;;;0.48;40.59;101256.63;4796822;29;20039;-80
2023/01/12 07:44:01;;;;;;;5.93;3.00;;;;;;;0.49;39.98;101243.94;4791464;29;20051;-80
2023/01/12 07:46:28;;;;;;;7.72;3.60;;;;;;;0.94;40.12;101232.63;4804258;29;20102;-77
2023/01/12 07:48:54;;;;;;;6.38;3.45;;;;;;;1.16;39.06;101206.44;4788434;30;20505;-82
2023/01/12 07:51:23;;;;;;;10.05;3.20;;;;;;;1.07;38.34;101183.75;4787878;30;20086;-82
2023/01/12 07:53:51;;;;;;;7.88;3.72;;;;;;;1.29;38.00;101242.19;4773393;30;20043;-79
2023/01/12 07:56:18;;;;;;;6.57;3.00;;;;;;;0.95;36.49;101252.34;4782305;30;20051;-80
2023/01/12 07:58:47;;;;;;;6.57;3.15;;;;;;;1.31;37.98;101232.00;4795984;29;20063;-79
2023/01/12 08:01:14;;;;;;;9.23;3.35;;;;;;;1.02;36.77;101262.09;4791554;29;20122;-80
2023/01/12 08:03:40;;;;;;;5.45;3.03;;;;;;;0.19;36.80;101231.16;4789138;30;20450;-81
2023/01/12 08:06:07;;;;;;;8.00;3.35;;;;;;;-0.13;37.83;101232.78;4790758;29;20498;-81
2023/01/12 08:08:33;;;;;;;11.02;3.92;;;;;;;-0.18;37.26;101264.91;4774069;30;20096;-80
2023/01/12 08:11:09;;;;;;;5.75;3.40;;;;;;;0.02;37.44;101189.25;4790600;29;20058;-79
2023/01/12 08:13:37;;;;;;;8.57;3.30;;;;;;;0.05;37.20;101262.78;4797661;29;20129;-79
2023/01/12 08:16:26;;;;;;;9.27;3.90;;;;;;;-0.56;37.72;101240.53;4799986;29;20059;-80
2023/01/12 08:19:05;;;;;;;8.00;3.33;;;;;;;-0.08;37.78;101258.66;4792937;29;20055;-79
2023/01/12 08:21:40;;;;;;;4.93;3.28;;;;;;;0.67;38.71;101230.34;4789481;29;20096;-79
2023/01/12 08:24:08;;;;;;;8.32;3.65;;;;;;;0.34;37.46;101227.69;4789220;29;20043;-80
2023/01/12 08:26:39;;;;;;;11.52;3.53;;;;;;;0.71;36.93;101196.41;4788860;29;20035;-79
2023/01/12 08:29:28;;;;;;;5.80;3.17;;;;;;;1.37;35.53;101234.00;4787746;29;20708;-80
2023/01/12 08:31:58;;;;;;;7.13;3.58;;;;;;;1.98;36.65;101220.78;4789094;29;20479;-79
2023/01/12 08:34:26;;;;;;;6.90;3.28;;;;;;;2.54;35.93;101214.03;4795764;29;20043;-80
2023/01/12 08:36:52;;;;;;;10.10;3.78;;;;;;;2.24;35.30;101182.66;4762599;30;20054;-80
2023/01/12 08:39:18;;;;;;;8.13;3.53;;;;;;;2.39;34.95;101196.19;4791773;29;20501;-82
2023/01/12 08:41:44;;;;;;;9.18;3.60;;;;;;;1.82;35.00;101183.22;4773082;30;20093;-80
2023/01/12 08:44:10;;;;;;;10.57;3.47;;;;;;;2.55;35.37;101209.75;4787213;29;20043;-79
2023/01/12 08:46:48;;;;;;;6.93;3.60;;;;;;;3.01;34.80;101204.13;4799427;29;20053;-80
2023/01/12 08:49:15;;;;;;;8.63;3.65;;;;;;;3.36;34.85;101183.31;4790465;29;20051;-78
2023/01/12 08:51:42;;;;;;;11.43;3.83;;;;;;;3.20;34.88;101186.06;4790760;29;20043;-80
2023/01/12 08:54:10;;;;;;;11.73;3.85;;;;;;;3.35;34.07;101206.44;4791546;29;20057;-78
2023/01/12 08:56:37;;;;;;;7.75;3.97;;;;;;;3.22;33.00;101189.59;4775447;29;20499;-80
2023/01/12 08:59:03;;;;;;;8.05;3.35;;;;;;;3.31;34.23;101185.72;4774306;29;20055;-80
2023/01/12 09:01:29;;;;;;;12.05;3.85;;;;;;;4.41;33.90;101186.69;4788368;30;20051;-78
2023/01/12 09:03:57;;;;;;;12.95;3.95;;;;;;;4.50;32.49;101186.16;4788654;29;20108;-77
2023/01/12 09:06:26;;;;;;;11.27;3.95;;;;;;;4.37;32.59;101187.38;4788120;30;20043;-80
2023/01/12 09:08:54;;;;;;;10.93;3.75;;;;;;;3.64;31.79;101191.34;4788077;30;20047;-80
2023/01/12 09:11:20;;;;;;;6.03;3.53;;;;;;;4.43;32.97;101181.56;4788072;30;20050;-80
2023/01/12 09:13:46;;;;;;;14.68;4.32;;;;;;;4.96;31.53;101171.53;4787777;29;20055;-81
2023/01/12 09:16:15;;;;;;;7.60;3.70;;;;;;;4.79;32.09;101176.91;4790631;29;20043;-80
2023/01/12 09:18:42;;;;;;;13.25;4.13;;;;;;;5.10;31.74;101159.09;4806271;29;20195;-85
2023/01/12 09:21:14;;;;;;;8.00;3.55;;;;;;;4.70;30.28;101137.91;4792800;29;20132;-81
2023/01/12 09:23:42;;;;;;;13.35;4.20;;;;;;;4.62;31.54;101159.97;4809410;29;20053;-83
2023/01/12 09:26:14;;;;;;;11.73;3.92;;;;;;;4.76;31.19;101132.97;4794492;29;20042;-82
2023/01/12 09:28:41;;;;;;;10.43;3.65;;;;;;;4.30;30.89;101033.34;4819482;29;20050;-80
2023/01/12 09:31:13;;;;;;;14.30;4.00;;;;;;;5.68;31.78;101129.19;4803631;29;20460;-81
2023/01/12 09:33:40;;;;;;;6.68;2.83;;;;;;;5.85;29.32;101048.78;4774819;30;20066;-82
2023/01/12 09:36:11;;;;;;;15.88;4.05;;;;;;;6.00;29.42;101067.38;4791965;30;20130;-81
2023/01/12 09:38:40;;;;;;;8.52;4.75;;;;;;;5.67;29.69;101055.13;4792322;30;20055;-82
2023/01/12 09:41:11;;;;;;;13.48;4.20;;;;;;;6.54;30.82;101098.22;4791883;30;20047;-84
2023/01/12 09:46:59;;;;;;;14.43;3.65;;;;;;;6.59;28.58;101123.38;4802357;29;20038;-83
2023/01/12 09:49:29;;;;;;;15.93;4.10;;;;;;;6.98;30.02;101115.78;4810440;29;20054;-82
2023/01/12 09:52:18;;;;;;;14.85;4.10;;;;;;;6.34;27.87;101070.06;4805946;29;20051;-83
2023/01/12 09:54:48;;;;;;;11.25;3.47;;;;;;;6.43;28.14;101127.22;4808277;29;20051;-81
2023/01/12 09:57:51;;;;;;;13.75;3.42;;;;;;;6.50;28.71;101117.94;4806198;29;20051;-82
2023/01/12 10:00:19;;;;;;;9.20;3.75;;;;;;;6.56;28.34;101068.97;4788696;29;20062;-80
2023/01/12 10:03:15;;;;;;;12.63;3.80;;;;;;;7.06;28.79;101119.47;4805939;29;20103;-81
2023/01/12 10:06:01;;;;;;;9.45;3.60;;;;;;;6.68;28.27;101031.34;4802664;30;20055;-82
2023/01/12 10:08:40;;;;;;;10.13;3.67;;;;;;;6.32;28.32;101010.56;4800398;29;20111;-82
2023/01/12 10:11:28;;;;;;;8.70;3.45;;;;;;;7.11;29.37;101093.69;4785925;29;20055;-84
2023/01/12 10:14:08;;;;;;;10.52;3.55;;;;;;;6.63;27.59;101099.34;4795060;29;20113;-82
2023/01/12 10:16:59;;;;;;;10.32;3.63;;;;;;;5.29;28.76;101103.81;4766347;30;20058;-84
2023/01/12 10:19:44;;;;;;;8.27;3.28;;;;;;;3.52;28.67;101104.22;4798023;30;20091;-83
2023/01/12 10:22:52;;;;;;;9.73;3.38;;;;;;;1.79;29.50;101112.09;4803054;30;20051;-82
2023/01/12 10:25:51;;;;;;;10.85;3.45;;;;;;;-1.17;31.05;100847.69;4800919;30;20061;-84
2023/01/12 10:28:28;;;;;;;8.20;3.55;;;;;;;-0.35;32.13;101151.34;4787392;30;20050;-82
2023/01/12 10:30:59;;;;;;;10.43;3.40;;;;;;;-1.04;33.21;101121.00;4794060;29;20050;-82
2023/01/12 10:33:31;;;;;;;11.07;3.13;;;;;;;-2.97;33.06;100865.22;4790613;29;20121;-83
2023/01/12 10:36:30;;;;;;;;;;;;;;;-1.95;34.21;101123.09;4792474;30;20051;-82
2023/01/12 10:39:27;;;;;;;9.48;3.50;;;;;;;-3.54;35.35;100944.84;4790253;30;20033;-81
2023/01/12 10:43:17;;;;;;;9.70;2.90;;;;;;;-3.40;36.08;101009.34;4807030;30;20055;-83
2023/01/12 10:45:28;;;;;;;7.72;3.15;;;;;;;-3.22;36.65;101100.50;4791303;29;20077;-80
2023/01/12 10:47:56;;;;;;;9.55;3.17;;;;;;;-4.54;37.19;100923.66;4790590;29;20075;-83
2023/01/12 10:50:30;;;;;;;8.45;3.00;;;;;;;-3.84;37.46;101020.84;4791241;30;20055;-83
2023/01/12 10:53:01;;;;;;;7.78;2.97;;;;;;;-3.36;37.45;101112.31;4785934;30;20056;-82
2023/01/12 10:55:31;;;;;;;7.57;2.78;;;;;;;-4.17;37.84;100996.50;4792511;30;20051;-82
2023/01/12 10:57:58;;;;;;;9.65;3.10;;;;;;;-4.57;37.97;100971.72;4773490;30;20048;-82
2023/01/12 11:00:26;;;;;;;6.95;3.03;;;;;;;-4.07;38.22;101076.84;4810266;29;20050;-83
2023/01/12 11:02:56;;;;;;;6.15;2.50;;;;;;;-4.35;38.33;101120.63;4782266;29;20047;-83
2023/01/12 11:06:15;;;;;;;10.70;2.92;;;;;;;-4.58;40.09;101082.63;4798205;29;20078;-83
2023/01/12 11:09:03;;;;;;;7.82;2.58;;;;;;;-4.52;40.96;101078.78;4800922;29;20114;-83
2023/01/12 11:11:38;;;;;;;8.77;2.95;;;;;;;-6.08;39.54;100818.88;4799285;29;20079;-83
2023/01/12 11:14:07;;;;;;;4.68;2.33;;;;;;;-6.28;40.49;100792.03;4783274;29;20114;-84
2023/01/12 11:16:49;;;;;;;8.57;3.05;;;;;;;-5.36;41.03;100974.56;4768439;30;20139;-84
2023/01/12 11:19:18;;;;;;;6.03;2.42;;;;;;;-4.88;40.42;101051.69;4798339;30;20046;-82
2023/01/12 11:21:50;;;;;;;6.95;2.53;;;;;;;-5.40;41.42;100980.19;4794660;29;20039;-84
2023/01/12 11:24:46;;;;;;;6.72;3.40;;;;;;;-5.74;41.09;100939.63;4780890;30;20537;-84
2023/01/12 11:27:15;;;;;;;6.60;2.90;;;;;;;-5.52;41.18;100985.22;4780039;30;20047;-83
2023/01/12 11:29:55;;;;;;;6.05;2.78;;;;;;;-5.84;42.00;100942.22;4796322;29;20047;-85
2023/01/12 11:32:38;;;;;;;9.00;3.53;;;;;;;-5.82;42.13;100986.34;4811581;29;20062;-85
2023/01/12 11:35:44;;;;;;;11.27;2.40;;;;;;;-5.96;42.47;100970.97;4795563;29;20620;-84
2023/01/12 11:38:31;;;;;;;21.63;7.55;;;;;;;-7.21;42.69;100758.81;4793549;30;20043;-82
2023/01/12 11:40:57;;;;;;;7.78;3.22;;;;;;;-6.76;43.33;100853.38;4776619;30;20043;-83
2023/01/12 11:43:54;;;;;;;5.55;2.58;;;;;;;-5.88;43.73;101009.56;4777660;30;20055;-83
2023/01/12 11:46:39;;;;;;;4.68;2.33;;;;;;;-5.67;43.97;101066.09;4803725;29;20129;-86
2023/01/12 11:49:21;;;;;;;5.95;2.60;;;;;;;-6.76;44.24;100894.78;4816088;29;20094;-84
2023/01/12 11:51:52;;;;;;;5.63;2.40;;;;;;;-6.39;44.26;100944.84;4795990;29;20070;-80
2023/01/12 11:54:22;;;;;;;5.97;2.08;;;;;;;-6.08;44.38;101005.53;4810519;29;20058;-82
2023/01/12 11:57:13;;;;;;;6.10;2.35;;;;;;;-5.78;44.36;101056.81;4813003;29;20046;-83
2023/01/12 12:00:14;;;;;;;6.60;2.85;;;;;;;-6.98;44.95;100894.72;4791087;29;20043;-83
2023/01/12 12:03:27;;;;;;;7.05;3.50;;;;;;;-5.86;44.96;101062.94;4773690;30;20577;-81
2023/01/12 12:06:33;;;;;;;8.82;2.92;;;;;;;-7.49;45.76;100817.34;4783654;29;20554;-82
2023/01/12 12:09:42;;;;;;;8.07;2.47;;;;;;;-5.86;45.71;101047.72;4771943;29;20605;-82
2023/01/12 12:13:02;;;;;;;5.43;2.55;;;;;;;-5.84;45.76;101052.13;4772810;30;20039;-83
2023/01/12 12:15:48;;;;;;;8.93;2.33;;;;;;;-6.00;45.83;101034.00;4793583;29;20061;-82